Andrew White

Olheiro-Chefe - Fulham
17 Jul 2027
Sábado
Processo

Personalidade

Adaptabilidade (20) Ambição (9) Controvérsia (3) Lealdade (16) Pressão (12) Profissionalismo (1) Espírito Esportivo (8) Temperamento (15)

Perfil

Estilo de Treinamento Democrático
Licença Continental A
Determinação 6
Gestão de Pessoas 12
Motivação 8
Disciplina 8
Satisfação no Trabalho
100%
Fadiga
0%
Função Olheiro-Chefe
Salário 56.0K p/s
Contrato 14.03.2029

Desempenho

Comportamento Bom
Eficácia do Treinamento
59%
Desenvolvimento do Jogador
60%
Prevenção de Lesões
65%
Implementação Tática
65%

Eventos Recentes

Participou de uma reunião de recrutamento agora
Participou de uma reunião de recrutamento agora
Participou de uma reunião de recrutamento agora
Participou de uma reunião de recrutamento agora
Recomendou um alvo de transferência agora
Recomendou um alvo de transferência 7d atrás
Recomendou um alvo de transferência 7d atrás
Recomendou um alvo de transferência 7d atrás

Monitorando agora

158
Jogador Clube Status Habilidade Confiança Observado Última observação Último voto
Ollie Scarles Chelsea Ativo 136 / 137 40% 7 29.06.2027 -
Manu Rodríguez Gijón Ativo 99 / 111 40% 1 29.06.2027 -
Christos Mouzakitis Hull City Perdido 125 / 134 40% 3 21.06.2027 -
Kirill Glebov CSKA Moscow Ativo 141 / 136 40% 2 21.06.2027 -
Daniel Kelly Derby County Ativo 118 / 124 40% 7 14.06.2027 -
Borna Knezović Casarano Perdido 113 / 112 40% 1 14.06.2027 -
Tiago Freitas Benfica Ativo 113 / 114 40% 9 02.06.2027 -
Jorrel Hato Chelsea Ativo 153 / 152 40% 8 02.06.2027 -
Marcel Ruiz Brentford Negociando 140 / 141 66% 1 01.06.2027 -
Mao Hosoya Manchester City Negociando 134 / 135 67% 1 01.06.2027 -
Bento Lokomotiv Moscow Ativo 151 / 128 40% 2 30.05.2027 -
Edoardo Motta Lazio Ativo 122 / 128 40% 2 30.05.2027 -
Giorgi Mamardashvili Sunderland Ativo 169 / 162 40% 1 29.05.2027 -
Lukáš Horníček Burnley Ativo 136 / 145 40% 1 29.05.2027 -
Senne Lammens Manchester United Ativo 150 / 157 40% 1 28.05.2027 -
Jakub Stolarczyk Tottenham Ativo 146 / 140 40% 4 27.05.2027 -
Oliver Dovin Coventry City Ativo 120 / 132 40% 3 27.05.2027 -
Juan David Arizala Udinese Ativo 116 / 122 40% 2 27.05.2027 -
Jacob Wright Norwich City Ativo 128 / 130 40% 2 24.05.2027 -
Gonçalo Oliveira Benfica Ativo 111 / 113 40% 4 24.05.2027 -
Carl Rushworth Coventry City Ativo 148 / 136 40% 4 24.05.2027 Observar
Caleb Yirenkyi Coventry City Ativo 141 / 144 40% 8 23.05.2027 -
Saïd El Mala Köln Ativo 146 / 144 40% 1 21.05.2027 -
Dylan Lawlor Cardiff City Ativo 117 / 120 40% 9 20.05.2027 -
Zion Suzuki Aston Villa Ativo 143 / 142 40% 3 20.05.2027 -
Sol Brynn Middlesbrough Ativo 133 / 128 40% 2 20.05.2027 -
Davide Bartesaghi AC Milan Ativo 139 / 139 40% 2 18.05.2027 -
Marco Carnesecchi Torino Ativo 152 / 157 40% 2 15.05.2027 -
Josh Keeley Luton Town Ativo 121 / 131 40% 3 15.05.2027 -
Federico Ravaglia Bologna Ativo 134 / 136 40% 3 13.05.2027 -
Chris Brady Bayer Leverkusen Ativo 138 / 134 40% 2 12.05.2027 -
Michael Cooper Sheffield United Ativo 128 / 132 40% 3 10.05.2027 -
Mfundo Vilakazi Kaizer Chiefs Ativo 125 / 125 40% 1 10.05.2027 -
Frédéric Perrot Union Berlin Ativo 136 / 128 40% 2 09.05.2027 -
Lucas Jetten Cambuur Ativo 117 / 117 40% 2 07.05.2027 -
Ronan Kpakio Brentford Ativo 123 / 130 40% 4 06.05.2027 -
Dayann Methalie Everton Ativo 133 / 140 40% 2 02.05.2027 -
Mads Hermansen West Ham United Ativo 135 / 142 40% 2 02.05.2027 -
Maduka Okoye Udinese Ativo 145 / 142 40% 1 01.05.2027 -
Gorka Gorosabel Real Sociedad Ativo 108 / 117 40% 2 30.04.2027 -
Robin Roefs Sunderland Ativo 144 / 153 40% 4 28.04.2027 -
Đorđe Petrović Bournemouth Ativo 146 / 153 40% 1 28.04.2027 -
Raúl Rangel Brighton Ativo 126 / 137 66% 4 25.04.2027 Aprovar
Jofre Torrents Ajax Ativo 118 / 125 40% 2 24.04.2027 -
Nestory Irankunda Watford Ativo 114 / 130 40% 2 24.04.2027 -
Filip Stanković Venezia Ativo 137 / 136 40% 1 24.04.2027 -
Illan Meslier Arsenal Ativo 130 / 127 40% 1 23.04.2027 -
James Trafford Leeds United Ativo 155 / 144 40% 1 22.04.2027 -
Radek Vítek Middlesbrough Ativo 134 / 135 40% 1 21.04.2027 -
Lorenzo Palmisani Frosinone Ativo 121 / 130 40% 2 19.04.2027 -
Max Weiß Wolverhampton Ativo 117 / 129 40% 1 15.04.2027 -
Anthony Patterson Wrexham Ativo 132 / 134 40% 1 12.04.2027 -
Mateusz Kochalski Qarabag Ativo 145 / 126 40% 1 11.04.2027 -
Johan Manzambi Manchester United Ativo 151 / 143 40% 3 08.04.2027 -
Enzo Cardozo Virtus Entella Ativo 99 / 119 40% 1 06.04.2027 -
Assane Diao Como Ativo 147 / 145 40% 3 03.04.2027 -
Maeson King Blackpool Ativo 118 / 113 40% 5 03.04.2027 -
Jaydee Canvot Liverpool Ativo 143 / 134 40% 3 03.04.2027 -
Oumar Camara Vitoria Guimaraes Ativo 113 / 132 40% 1 03.04.2027 -
Othmane Maamma Watford Ativo 132 / 126 40% 2 01.04.2027 -
Sidiki Chérif Coventry City Ativo 127 / 130 40% 2 31.03.2027 -
Jack Hinshelwood Brighton Ativo 139 / 155 40% 6 25.03.2027 -
David Ozoh Derby County Ativo 125 / 120 40% 2 24.03.2027 -
Sindre Walle Egeli Nottingham Forest Ativo 136 / 134 40% 1 24.03.2027 -
Oscar Schwartau Norwich City Ativo 129 / 133 40% 1 23.03.2027 -
Chemsdine Talbi Sunderland Ativo 154 / 142 40% 2 22.03.2027 -
Chema Andrés Liverpool Ativo 127 / 137 40% 3 21.03.2027 -
Alphadjo Cissé Pisa Ativo 118 / 125 40% 1 19.03.2027 -
Jonathan De Irastorza Levante Ativo 126 / 124 40% 1 19.03.2027 -
Valentin Atangana Al-Ahli Ativo 147 / 130 40% 4 17.03.2027 -
Malick Fofana Sunderland Ativo 136 / 152 40% 2 14.03.2027 -
Nico O'Reilly Manchester City Ativo 142 / 163 40% 6 11.03.2027 -
Cemran Dansin Orlando Pirates Ativo 119 / 110 40% 5 10.03.2027 -
Belal Ateya Al Ahly Ativo 126 / 120 40% 1 10.03.2027 -
Edvin Austbø West Ham United Ativo 128 / 130 40% 1 10.03.2027 -
Andrey Ivlev Nizhniy Novgorod Ativo 114 / 110 40% 2 08.03.2027 -
Lander Astiazarán Real Sociedad Ativo 109 / 113 40% 1 05.03.2027 -
Matvey Kislyak Lokomotiv Moscow Ativo 123 / 136 40% 2 03.03.2027 -
Leandrinho Sharjah Ativo 119 / 125 40% 3 03.03.2027 -
Bazoumana Touré Newcastle United Ativo 144 / 142 40% 1 02.03.2027 -
Lucas Bergvall Tottenham Ativo 155 / 152 40% 4 27.02.2027 -
Ignacio Perruzzi Celta Ativo 116 / 128 40% 2 17.02.2027 -
Eivind Helland Bologna Ativo 126 / 130 40% 2 13.02.2027 -
Bakary Haïdara Hearts of Oak Ativo 95 / 105 40% 1 11.02.2027 -
Leonardo Mendicino Bari Ativo 116 / 118 40% 1 04.02.2027 -
Jérémy Jacquet Liverpool Ativo 146 / 145 40% 2 03.02.2027 -
Callum Doyle Wrexham Ativo 119 / 133 55% 1 18.01.2027 -
Dom Ballard Leyton Orient Ativo 127 / 130 40% 2 04.01.2027 -
Brennan Johnson Everton Ativo 141 / 150 40% 6 03.01.2027 -
Camilo Durán Bloemfontein Celtic Ativo 129 / 112 40% 3 01.01.2027 -
Stanislav Agkatsev TSG Hoffenheim Negociando 132 / 133 66% 1 01.01.2027 Aprovar
Marvin Keller Racing Genk Ativo 136 / 137 67% 1 01.01.2027 Aprovar
Thiago Almada Fiorentina Ativo 145 / 146 69% 1 01.01.2027 Aprovar
João Félix Aston Villa Ativo 158 / 149 40% 4 30.12.2026 -
Dávid Strelec Middlesbrough Ativo 138 / 134 40% 2 30.12.2026 -
Khvicha Kvaratskhelia Inter Ativo 169 / 160 40% 1 28.12.2026 -
Curtis Jones Inter Ativo 165 / 150 40% 1 28.12.2026 -
Óscar Mingueza Crystal Palace Ativo 139 / 154 40% 2 27.12.2026 -
Julio Enciso Ipswich Town Ativo 157 / 139 40% 3 27.12.2026 Observar
Tyler Adams Bournemouth Ativo 143 / 157 40% 3 26.12.2026 -
Adam Wharton Crystal Palace Ativo 160 / 161 40% 3 25.12.2026 -
Solly Khunyedi Bloemfontein Celtic Ativo 90 / 94 40% 1 23.12.2026 -
Matt O'Riley Brighton Ativo 143 / 146 40% 5 19.12.2026 -
Yasin Ayari Brighton Ativo 145 / 150 40% 1 19.12.2026 -
El Hadji Malick Diouf Brentford Ativo 134 / 142 40% 5 18.12.2026 -
Savinho Tottenham Ativo 156 / 158 40% 2 17.12.2026 -
Yousef Salech Cardiff City Ativo 116 / 122 40% 1 17.12.2026 -
Nicolas Jackson Aston Villa Ativo 155 / 153 40% 7 13.12.2026 -
Liam Delap Nottingham Forest Ativo 144 / 147 40% 2 13.12.2026 -
Tino Livramento Newcastle United Ativo 161 / 162 40% 1 13.12.2026 -
Tyrese Campbell Sheffield United Ativo 115 / 124 40% 1 13.12.2026 -
Juanlu Bournemouth Ativo 135 / 143 40% 2 08.12.2026 -
Boubacar Kamara Aston Villa Ativo 155 / 162 40% 3 07.12.2026 -
Kevin Schade Brentford Ativo 157 / 150 40% 7 06.12.2026 -
Yankuba Minteh Brighton Ativo 145 / 158 40% 2 06.12.2026 -
Pedro Porro Tottenham Ativo 136 / 146 40% 2 04.12.2026 -
Jack Vale Spartak Myjava Ativo 81 / 85 40% 1 04.12.2026 -
Carlos Vicente Udinese Ativo 151 / 138 40% 1 04.12.2026 -
Dango Ouattara Brentford Ativo 138 / 140 40% 2 03.12.2026 -
Yeremy Pino Crystal Palace Ativo 157 / 152 40% 1 30.11.2026 -
Amine Adli Bournemouth Ativo 154 / 148 40% 1 29.11.2026 -
Andile Manyama Ajax Cape Town Ativo 104 / 104 40% 1 29.11.2026 -
Nico González Newcastle United Ativo 152 / 165 40% 2 27.11.2026 -
Alex Scott Bournemouth Ativo 136 / 153 40% 1 25.11.2026 -
Lamine Cissé Peterborough United Ativo 117 / 119 40% 1 22.11.2026 -
Dejan Joveljić Seattle Sounders Ativo 111 / 120 40% 1 21.11.2026 -
Mohammed Kudus Tottenham Ativo 148 / 149 40% 2 19.11.2026 -
Noah Sadiki Sunderland Ativo 138 / 147 40% 4 18.11.2026 -
Sandro Tonali Tottenham Ativo 178 / 174 40% 3 18.11.2026 -
Xavi Simons Tottenham Ativo 145 / 153 40% 1 16.11.2026 -
Iliman N'Diaye Everton Ativo 169 / 162 40% 1 16.11.2026 Mais informações
Kelvin Yeboah Minnesota United FC Ativo 121 / 117 40% 2 12.11.2026 -
Jacob Ramsey Newcastle United Ativo 154 / 151 40% 1 12.11.2026 -
Mikkel Damsgaard Brentford Ativo 146 / 148 40% 1 08.11.2026 -
Sergi Domínguez Dinamo Zagreb Ativo 135 / 128 40% 1 07.11.2026 -
Elliot Anderson Manchester City Ativo 154 / 146 40% 1 07.11.2026 -
Amadou Onana Newcastle United Ativo 163 / 151 40% 2 03.11.2026 -
Enzo Barrenechea Burnley Ativo 138 / 145 40% 2 01.11.2026 -
Quinten Timber Crystal Palace Ativo 148 / 147 40% 2 30.10.2026 -
Noni Madueke Arsenal Ativo 144 / 153 40% 1 30.10.2026 -
Jadon Sancho Manchester United Ativo 139 / 145 40% 1 29.10.2026 -
Adrien Truffert Bournemouth Ativo 159 / 155 40% 1 29.10.2026 -
Micky van de Ven Tottenham Ativo 156 / 161 40% 1 27.10.2026 -
Mats Wieffer Brighton Ativo 141 / 142 40% 1 13.10.2026 -
Rico Lewis Manchester City Ativo 151 / 151 40% 4 12.10.2026 -
Etiosa Ighodaro Kaizer Chiefs Ativo 111 / 101 40% 1 09.10.2026 -
Elías Báez Atlanta United FC Ativo 131 / 121 40% 2 25.09.2026 -
Brooklyn Raines New England Revolution Ativo 111 / 127 40% 1 21.09.2026 -
Mbekezeli Mbokazi Chicago Fire Ativo 135 / 131 40% 4 19.09.2026 -
Philippe Ndinga Philadelphia Union Ativo 105 / 120 40% 1 19.09.2026 -
Patrick Kelly Barnsley Ativo 114 / 110 40% 2 18.09.2026 -
Derek Mazou-Sacko Millwall Ativo 117 / 123 40% 1 17.09.2026 -
Morrison Agyemang Charlotte Football Club Ativo 118 / 124 40% 2 15.09.2026 -
Sergio Oregel Chicago Fire Ativo 91 / 106 40% 3 14.09.2026 -
Reuell Walters Luton Town Ativo 98 / 110 40% 1 13.09.2026 -
Lewis Hall Newcastle United Ativo 155 / 151 40% 1 02.09.2026 -
Mauricio Amaro Atlanta United FC Ativo 105 / 119 40% 2 24.08.2026 -
Breel Embolo Atlanta United FC Ativo 124 / 141 40% 1 02.08.2026 -